Time;durP1;ratioP1;P1;durP2;ratioP2;P2;SDS_P1;SDS_P2;PMS_P1;PMS_P2;Temp;Humidity;BMP_temperature;BMP_pressure;BME280_temperature;BME280_humidity;BME280_pressure;Samples;Min_cycle;Max_cycle;Signal;HPM_P1;HPM_P2
2022/08/05 00:01:37;;;;;;;8.57;7.65;;;;;;;;;;5080979;27;20245;-52
2022/08/05 00:04:04;;;;;;;9.93;6.70;;;;;;;;;;5069838;28;20246;-53
2022/08/05 00:06:30;;;;;;;8.98;7.25;;;;;;;;;;5077551;27;20279;-52
2022/08/05 00:08:57;;;;;;;7.57;6.30;;;;;;;;;;5079481;27;20230;-53
2022/08/05 00:11:23;;;;;;;9.93;6.88;;;;;;;;;;5079106;27;20239;-52
2022/08/05 00:13:51;;;;;;;7.10;6.00;;;;;;;;;;5080107;27;20234;-53
2022/08/05 00:16:17;;;;;;;7.88;6.88;;;;;;;;;;5072326;28;20234;-52
2022/08/05 00:18:44;;;;;;;7.45;6.50;;;;;;;;;;5078859;27;20618;-53
2022/08/05 00:21:11;;;;;;;8.02;6.50;;;;;;;;;;5082793;27;20249;-52
2022/08/05 00:23:39;;;;;;;7.32;6.63;;;;;;;;;;5086633;27;20235;-53
2022/08/05 00:26:06;;;;;;;9.75;6.88;;;;;;;;;;5083386;27;20231;-53
2022/08/05 00:28:32;;;;;;;10.95;7.22;;;;;;;;;;5078085;27;20554;-53
2022/08/05 00:31:00;;;;;;;9.35;7.15;;;;;;;;;;5064161;27;20234;-52
2022/08/05 00:33:26;;;;;;;7.53;6.82;;;;;;;;;;5081506;27;20242;-52
2022/08/05 00:35:53;;;;;;;8.68;6.35;;;;;;;;;;5074461;27;20227;-53
2022/08/05 00:38:19;;;;;;;8.10;7.03;;;;;;;;;;5081309;27;20231;-53
2022/08/05 00:40:47;;;;;;;9.70;7.28;;;;;;;;;;5077235;27;20605;-52
2022/08/05 00:43:13;;;;;;;9.75;6.63;;;;;;;;;;5086138;28;20230;-53
2022/08/05 00:45:39;;;;;;;7.32;6.63;;;;;;;;;;5081431;27;20233;-52
2022/08/05 00:48:08;;;;;;;9.35;7.28;;;;;;;;;;5074097;27;20234;-53
2022/08/05 00:50:34;;;;;;;8.98;7.25;;;;;;;;;;5074286;27;20296;-52
2022/08/05 00:53:00;;;;;;;10.15;6.93;;;;;;;;;;5083652;27;20238;-53
2022/08/05 00:55:27;;;;;;;9.13;7.78;;;;;;;;;;5075362;27;20234;-52
2022/08/05 00:57:53;;;;;;;10.63;7.50;;;;;;;;;;5084807;27;20240;-52
2022/08/05 01:00:19;;;;;;;9.68;7.80;;;;;;;;;;5082065;27;20266;-53
2022/08/05 01:02:46;;;;;;;9.30;7.03;;;;;;;;;;5088070;27;20611;-52
2022/08/05 01:05:13;;;;;;;9.75;6.70;;;;;;;;;;5074988;27;20646;-53
2022/08/05 01:07:41;;;;;;;7.78;6.50;;;;;;;;;;5085299;27;20273;-53
2022/08/05 01:10:10;;;;;;;10.50;6.47;;;;;;;;;;5075121;27;20260;-53
2022/08/05 01:12:37;;;;;;;7.30;6.60;;;;;;;;;;5084683;27;20230;-52
2022/08/05 01:15:05;;;;;;;7.60;6.10;;;;;;;;;;5081731;27;20227;-53
2022/08/05 01:17:37;;;;;;;9.07;6.68;;;;;;;;;;5077651;27;20292;-54
2022/08/05 01:20:12;;;;;;;5.97;5.47;;;;;;;;;;5081117;27;20305;-52
2022/08/05 01:22:45;;;;;;;7.68;6.75;;;;;;;;;;5080836;27;20234;-53
2022/08/05 01:25:35;;;;;;;7.20;6.55;;;;;;;;;;5069464;28;20230;-52
2022/08/05 01:28:13;;;;;;;7.40;6.28;;;;;;;;;;5059378;27;20757;-52
2022/08/05 01:30:41;;;;;;;7.18;6.53;;;;;;;;;;5074640;27;20242;-52
2022/08/05 01:33:09;;;;;;;7.07;6.05;;;;;;;;;;5081635;27;20227;-51
2022/08/05 01:35:37;;;;;;;7.78;5.88;;;;;;;;;;5075818;27;20704;-53
2022/08/05 01:38:05;;;;;;;8.05;6.03;;;;;;;;;;5077031;27;20235;-52
2022/08/05 01:40:32;;;;;;;7.28;6.20;;;;;;;;;;5079221;27;20244;-52
2022/08/05 01:43:00;;;;;;;7.57;5.72;;;;;;;;;;5084515;27;20230;-52
2022/08/05 01:45:29;;;;;;;6.57;5.50;;;;;;;;;;5081318;27;20230;-52
2022/08/05 01:47:56;;;;;;;7.65;6.93;;;;;;;;;;5083558;27;20239;-53
2022/08/05 01:50:26;;;;;;;6.60;5.93;;;;;;;;;;5083595;27;20238;-54
2022/08/05 01:52:53;;;;;;;6.63;6.03;;;;;;;;;;5079195;27;20830;-53
2022/08/05 01:55:20;;;;;;;7.13;5.53;;;;;;;;;;5083542;27;20241;-53
2022/08/05 01:57:47;;;;;;;6.93;5.25;;;;;;;;;;5084211;27;20242;-52
2022/08/05 02:00:14;;;;;;;11.35;5.32;;;;;;;;;;5076353;27;20237;-53
2022/08/05 02:02:44;;;;;;;5.78;5.28;;;;;;;;;;5081513;27;20243;-52
2022/08/05 02:05:11;;;;;;;5.97;4.72;;;;;;;;;;5080435;28;20234;-52
2022/08/05 02:07:38;;;;;;;5.25;4.57;;;;;;;;;;5078676;27;20235;-53
2022/08/05 02:10:05;;;;;;;6.25;5.10;;;;;;;;;;5083598;27;20235;-53
2022/08/05 02:12:37;;;;;;;4.72;4.28;;;;;;;;;;5082238;27;20234;-52
2022/08/05 02:15:06;;;;;;;4.90;4.50;;;;;;;;;;5083713;27;20231;-52
2022/08/05 02:17:35;;;;;;;5.18;4.35;;;;;;;;;;5076661;27;20258;-52
2022/08/05 02:20:07;;;;;;;4.70;3.92;;;;;;;;;;5066899;28;20254;-53
2022/08/05 02:22:36;;;;;;;5.40;4.47;;;;;;;;;;5076892;27;20238;-52
2022/08/05 02:25:04;;;;;;;7.53;4.78;;;;;;;;;;5076067;27;20618;-52
2022/08/05 02:27:34;;;;;;;5.63;5.10;;;;;;;;;;5078866;27;20223;-53
2022/08/05 02:30:01;;;;;;;5.50;4.50;;;;;;;;;;5076729;27;20234;-52
2022/08/05 02:32:29;;;;;;;5.47;4.25;;;;;;;;;;5079753;28;20259;-53
2022/08/05 02:34:56;;;;;;;6.40;4.55;;;;;;;;;;5077498;27;20242;-53
2022/08/05 02:37:24;;;;;;;5.18;4.30;;;;;;;;;;5079128;27;20470;-52
2022/08/05 02:39:50;;;;;;;5.78;4.70;;;;;;;;;;5076318;28;20239;-52
2022/08/05 02:42:18;;;;;;;5.10;4.60;;;;;;;;;;5081088;27;20738;-52
2022/08/05 02:44:44;;;;;;;4.55;4.18;;;;;;;;;;5086086;27;20700;-52
2022/08/05 02:47:11;;;;;;;7.78;4.00;;;;;;;;;;5078589;27;20718;-53
2022/08/05 02:49:41;;;;;;;4.10;3.80;;;;;;;;;;5087233;27;20226;-52
2022/08/05 02:52:08;;;;;;;5.28;4.35;;;;;;;;;;5081781;27;20254;-52
2022/08/05 02:54:37;;;;;;;4.43;4.00;;;;;;;;;;5077644;27;20241;-51
2022/08/05 02:57:05;;;;;;;5.80;4.28;;;;;;;;;;5086663;27;20740;-52
2022/08/05 02:59:32;;;;;;;5.00;4.50;;;;;;;;;;5071651;27;20724;-52
2022/08/05 03:01:59;;;;;;;7.75;3.90;;;;;;;;;;5079296;27;20245;-53
2022/08/05 03:04:25;;;;;;;5.00;3.92;;;;;;;;;;5077690;27;20731;-52
2022/08/05 03:06:55;;;;;;;4.53;3.47;;;;;;;;;;5074564;27;20222;-53
2022/08/05 03:09:21;;;;;;;4.47;4.07;;;;;;;;;;5082097;27;20227;-52
2022/08/05 03:12:06;;;;;;;5.22;4.03;;;;;;;;;;5078935;28;20907;-52
2022/08/05 03:14:34;;;;;;;4.32;3.92;;;;;;;;;;5084326;27;20314;-52
2022/08/05 03:17:00;;;;;;;4.45;3.70;;;;;;;;;;5082260;27;20265;-53
2022/08/05 03:19:27;;;;;;;3.92;3.58;;;;;;;;;;5087959;27;20241;-52
2022/08/05 03:21:53;;;;;;;4.90;4.50;;;;;;;;;;5087677;27;20246;-53
2022/08/05 03:24:20;;;;;;;3.85;3.55;;;;;;;;;;5080462;27;20230;-52
2022/08/05 03:26:46;;;;;;;4.80;3.60;;;;;;;;;;5088398;27;20325;-52
2022/08/05 03:29:12;;;;;;;4.47;4.07;;;;;;;;;;5085040;27;20274;-52
2022/08/05 03:31:40;;;;;;;3.80;3.58;;;;;;;;;;5083171;27;20234;-52
2022/08/05 03:34:07;;;;;;;4.28;3.88;;;;;;;;;;5081979;27;20714;-52
2022/08/05 03:36:35;;;;;;;4.93;4.10;;;;;;;;;;5088620;27;20608;-53
2022/08/05 03:39:06;;;;;;;5.13;4.60;;;;;;;;;;5081996;27;20235;-52
2022/08/05 03:41:32;;;;;;;4.70;4.20;;;;;;;;;;5080113;28;20325;-52
2022/08/05 03:43:58;;;;;;;9.10;4.57;;;;;;;;;;5083867;27;20231;-53
2022/08/05 03:46:25;;;;;;;8.02;4.50;;;;;;;;;;5086734;27;20240;-52
2022/08/05 03:48:53;;;;;;;4.32;4.00;;;;;;;;;;5083979;27;20233;-53
2022/08/05 03:51:21;;;;;;;5.47;4.63;;;;;;;;;;5087109;27;20620;-52
2022/08/05 03:53:50;;;;;;;4.13;3.72;;;;;;;;;;5084400;27;20237;-52
2022/08/05 03:56:21;;;;;;;3.33;3.13;;;;;;;;;;5078458;28;20237;-52
2022/08/05 03:58:48;;;;;;;4.35;3.95;;;;;;;;;;5081278;27;20258;-52
2022/08/05 04:01:16;;;;;;;4.60;4.18;;;;;;;;;;5075198;27;20243;-55
2022/08/05 04:03:44;;;;;;;4.18;3.72;;;;;;;;;;5083921;27;20310;-53
2022/08/05 04:06:12;;;;;;;5.00;4.50;;;;;;;;;;5088099;28;20232;-52
2022/08/05 04:08:38;;;;;;;4.53;4.13;;;;;;;;;;5086307;27;20604;-53
2022/08/05 04:11:07;;;;;;;4.70;4.13;;;;;;;;;;5084858;27;20761;-52
2022/08/05 04:13:33;;;;;;;7.03;5.35;;;;;;;;;;5080293;27;20390;-54
2022/08/05 04:15:59;;;;;;;5.07;4.60;;;;;;;;;;5084027;27;20229;-52
2022/08/05 04:18:26;;;;;;;6.00;4.63;;;;;;;;;;5081249;27;21494;-53
2022/08/05 04:20:53;;;;;;;4.93;4.15;;;;;;;;;;5094998;27;20242;-53
2022/08/05 04:23:21;;;;;;;5.10;4.70;;;;;;;;;;5086055;27;20238;-51
2022/08/05 04:25:47;;;;;;;5.25;4.75;;;;;;;;;;5080673;28;20231;-52
2022/08/05 04:28:14;;;;;;;4.43;4.05;;;;;;;;;;5083998;28;20235;-53
2022/08/05 04:30:40;;;;;;;10.90;5.53;;;;;;;;;;5079741;27;20245;-53
2022/08/05 04:33:06;;;;;;;4.95;4.40;;;;;;;;;;5085294;27;20226;-52
2022/08/05 04:35:33;;;;;;;5.15;4.40;;;;;;;;;;5081108;28;20237;-53
2022/08/05 04:37:59;;;;;;;5.07;4.68;;;;;;;;;;5083103;27;20234;-52
2022/08/05 04:40:27;;;;;;;4.50;4.20;;;;;;;;;;5085514;27;20237;-53
2022/08/05 04:42:53;;;;;;;6.13;4.05;;;;;;;;;;5088504;27;20716;-52
2022/08/05 04:45:20;;;;;;;6.05;4.10;;;;;;;;;;5102904;27;20222;-52
2022/08/05 04:47:46;;;;;;;3.83;3.42;;;;;;;;;;5082072;27;20246;-53
2022/08/05 04:50:13;;;;;;;4.18;3.65;;;;;;;;;;5093076;27;20226;-53
2022/08/05 04:52:39;;;;;;;4.28;3.92;;;;;;;;;;5081199;27;20318;-52
2022/08/05 04:55:05;;;;;;;5.30;4.65;;;;;;;;;;5079555;27;20712;-52
2022/08/05 04:57:33;;;;;;;6.57;3.97;;;;;;;;;;5086445;27;20237;-52
2022/08/05 04:59:59;;;;;;;13.13;4.82;;;;;;;;;;5084343;27;20245;-52
2022/08/05 05:02:26;;;;;;;4.30;3.90;;;;;;;;;;5086553;27;20603;-52
2022/08/05 05:04:52;;;;;;;7.35;4.10;;;;;;;;;;5071404;27;20230;-52
2022/08/05 05:07:19;;;;;;;4.30;3.90;;;;;;;;;;5083190;27;20317;-54
2022/08/05 05:09:45;;;;;;;3.97;3.67;;;;;;;;;;5078273;27;20235;-54
2022/08/05 05:12:12;;;;;;;4.82;4.43;;;;;;;;;;5081779;27;20650;-53
2022/08/05 05:14:39;;;;;;;5.07;4.35;;;;;;;;;;5093583;27;20226;-53
2022/08/05 05:17:06;;;;;;;3.90;3.60;;;;;;;;;;5085714;27;20237;-52
2022/08/05 05:19:32;;;;;;;4.35;4.05;;;;;;;;;;5078014;27;20234;-52
2022/08/05 05:21:58;;;;;;;4.00;3.70;;;;;;;;;;5080403;27;20246;-52
2022/08/05 05:24:25;;;;;;;3.83;3.50;;;;;;;;;;5086603;27;20337;-52
2022/08/05 05:26:51;;;;;;;3.97;3.55;;;;;;;;;;5085925;27;20256;-52
2022/08/05 05:29:17;;;;;;;5.43;4.28;;;;;;;;;;5078206;27;20720;-53
2022/08/05 05:31:45;;;;;;;4.60;4.22;;;;;;;;;;5083052;27;20238;-52
2022/08/05 05:34:11;;;;;;;4.97;4.45;;;;;;;;;;5078260;27;20234;-53
2022/08/05 05:36:38;;;;;;;5.95;4.00;;;;;;;;;;5082721;27;20241;-53
2022/08/05 05:39:04;;;;;;;4.60;4.13;;;;;;;;;;5080953;27;21759;-53
2022/08/05 05:41:31;;;;;;;4.55;4.15;;;;;;;;;;5084388;27;20230;-52
2022/08/05 05:43:57;;;;;;;5.70;4.07;;;;;;;;;;5084551;27;20648;-52
2022/08/05 05:46:23;;;;;;;5.00;4.47;;;;;;;;;;5080896;27;20230;-53
2022/08/05 05:48:51;;;;;;;4.38;4.05;;;;;;;;;;5088813;27;20278;-53
2022/08/05 05:51:18;;;;;;;4.18;3.83;;;;;;;;;;5078275;27;20241;-52
2022/08/05 05:53:44;;;;;;;3.65;3.35;;;;;;;;;;5079674;27;20235;-57
2022/08/05 05:56:11;;;;;;;6.45;4.25;;;;;;;;;;5081191;27;20230;-52
2022/08/05 05:58:37;;;;;;;4.97;4.45;;;;;;;;;;5082958;27;20234;-52
2022/08/05 06:01:03;;;;;;;5.07;4.68;;;;;;;;;;5077009;27;20231;-53
2022/08/05 06:03:30;;;;;;;4.85;4.47;;;;;;;;;;5083643;27;20648;-53
2022/08/05 06:05:58;;;;;;;7.15;4.70;;;;;;;;;;5078827;27;20255;-54
2022/08/05 06:08:24;;;;;;;5.60;4.50;;;;;;;;;;5088403;27;20249;-53
2022/08/05 06:10:50;;;;;;;4.97;4.35;;;;;;;;;;5078016;27;20230;-54
2022/08/05 06:13:16;;;;;;;7.72;4.75;;;;;;;;;;5075039;27;20227;-52
2022/08/05 06:15:43;;;;;;;8.43;5.13;;;;;;;;;;5076875;27;20231;-53
2022/08/05 06:18:09;;;;;;;4.95;4.50;;;;;;;;;;5087308;27;20241;-53
2022/08/05 06:20:36;;;;;;;5.93;4.45;;;;;;;;;;5077943;27;20242;-54
2022/08/05 06:23:03;;;;;;;4.28;3.88;;;;;;;;;;5071351;27;20235;-51
2022/08/05 06:25:30;;;;;;;3.70;3.40;;;;;;;;;;5084808;27;20225;-53
2022/08/05 06:27:56;;;;;;;5.38;4.00;;;;;;;;;;5079819;27;20229;-53
2022/08/05 06:30:25;;;;;;;4.32;3.92;;;;;;;;;;5075962;28;20243;-52
2022/08/05 06:32:51;;;;;;;4.18;3.78;;;;;;;;;;5080707;28;20311;-53
2022/08/05 06:35:18;;;;;;;6.47;3.70;;;;;;;;;;5079625;27;20574;-53
2022/08/05 06:37:45;;;;;;;4.28;3.97;;;;;;;;;;5081158;27;20301;-58
2022/08/05 06:40:13;;;;;;;4.45;3.70;;;;;;;;;;5081663;27;20271;-53
2022/08/05 06:42:40;;;;;;;4.85;4.47;;;;;;;;;;5085724;28;20273;-53
2022/08/05 06:45:07;;;;;;;4.40;4.03;;;;;;;;;;5076493;27;20230;-52
2022/08/05 06:47:33;;;;;;;4.07;3.65;;;;;;;;;;5078329;27;20227;-52
2022/08/05 06:49:59;;;;;;;6.80;4.55;;;;;;;;;;5075060;27;20234;-52
2022/08/05 06:52:26;;;;;;;15.95;4.75;;;;;;;;;;5077283;27;20234;-52
2022/08/05 06:54:52;;;;;;;6.45;3.88;;;;;;;;;;5082639;27;20226;-53
2022/08/05 06:57:20;;;;;;;4.07;3.67;;;;;;;;;;5083597;27;20296;-52
2022/08/05 06:59:46;;;;;;;4.45;3.55;;;;;;;;;;5080534;27;20234;-52
2022/08/05 07:02:13;;;;;;;5.10;3.53;;;;;;;;;;5083533;27;20238;-52
2022/08/05 07:04:39;;;;;;;4.22;3.20;;;;;;;;;;5077948;27;20233;-52
2022/08/05 07:07:05;;;;;;;3.50;3.15;;;;;;;;;;5074949;27;20242;-51
2022/08/05 07:09:32;;;;;;;3.47;3.17;;;;;;;;;;5067811;27;20226;-53
2022/08/05 07:11:58;;;;;;;6.55;3.63;;;;;;;;;;5081003;27;20245;-53
2022/08/05 07:17:10;;;;;;;3.75;3.42;;;;;;;;;;5075783;28;20245;-53
2022/08/05 07:19:36;;;;;;;4.00;3.35;;;;;;;;;;5073067;28;20239;-53
2022/08/05 07:22:05;;;;;;;5.03;3.08;;;;;;;;;;5078611;27;20809;-52
2022/08/05 07:24:31;;;;;;;7.22;4.05;;;;;;;;;;5078703;27;20226;-52
2022/08/05 07:26:57;;;;;;;4.43;4.03;;;;;;;;;;5073425;27;20226;-52
2022/08/05 07:29:24;;;;;;;3.53;3.22;;;;;;;;;;5072290;27;20226;-52
2022/08/05 07:31:51;;;;;;;4.38;3.35;;;;;;;;;;5071683;27;20241;-52
2022/08/05 07:34:18;;;;;;;3.65;3.15;;;;;;;;;;5071848;27;20238;-53
2022/08/05 07:36:45;;;;;;;3.60;3.30;;;;;;;;;;5073853;27;20226;-52
2022/08/05 07:39:11;;;;;;;5.60;4.10;;;;;;;;;;5074073;27;20243;-52
2022/08/05 07:41:37;;;;;;;5.60;3.85;;;;;;;;;;5080381;27;20577;-52
2022/08/05 07:44:04;;;;;;;6.13;3.80;;;;;;;;;;5082382;27;20231;-53
2022/08/05 07:46:31;;;;;;;5.10;3.40;;;;;;;;;;5070592;27;20712;-52
2022/08/05 07:49:00;;;;;;;17.98;4.22;;;;;;;;;;5077917;27;20258;-52
2022/08/05 07:51:26;;;;;;;5.03;4.03;;;;;;;;;;5084206;27;20690;-52
2022/08/05 07:53:52;;;;;;;5.43;3.63;;;;;;;;;;5078155;27;20280;-51
2022/08/05 07:56:19;;;;;;;4.43;4.03;;;;;;;;;;5070956;27;20592;-52
2022/08/05 07:58:45;;;;;;;8.07;4.30;;;;;;;;;;5083833;28;20756;-54
2022/08/05 08:01:11;;;;;;;8.00;4.07;;;;;;;;;;5085222;27;20693;-53
2022/08/05 08:03:38;;;;;;;6.85;4.10;;;;;;;;;;5088260;28;20231;-51
2022/08/05 08:06:06;;;;;;;11.18;4.43;;;;;;;;;;5074007;27;20226;-52
2022/08/05 08:08:32;;;;;;;4.75;4.25;;;;;;;;;;5080387;27;20276;-52
2022/08/05 08:10:59;;;;;;;4.30;3.95;;;;;;;;;;5073491;27;20230;-52
2022/08/05 08:13:25;;;;;;;4.40;3.47;;;;;;;;;;5077877;27;20716;-52
2022/08/05 08:15:52;;;;;;;6.13;4.30;;;;;;;;;;5080057;27;20227;-52
2022/08/05 08:18:18;;;;;;;4.60;4.20;;;;;;;;;;5083384;27;20237;-53
2022/08/05 08:20:44;;;;;;;3.97;3.40;;;;;;;;;;5080115;27;20242;-53
2022/08/05 08:23:12;;;;;;;3.95;3.55;;;;;;;;;;5078805;27;20223;-53
2022/08/05 08:25:38;;;;;;;6.05;3.65;;;;;;;;;;5082512;28;20283;-54
2022/08/05 08:28:05;;;;;;;4.18;3.05;;;;;;;;;;5084472;27;20321;-51
2022/08/05 08:30:31;;;;;;;3.85;3.08;;;;;;;;;;5071092;28;20263;-52
2022/08/05 08:32:57;;;;;;;3.92;3.25;;;;;;;;;;5080122;27;20271;-53
2022/08/05 08:35:24;;;;;;;4.70;3.33;;;;;;;;;;5087633;27;20241;-52
2022/08/05 08:37:50;;;;;;;3.20;2.80;;;;;;;;;;5082788;27;20276;-53
2022/08/05 08:40:18;;;;;;;3.33;3.03;;;;;;;;;;5084658;27;20250;-52
2022/08/05 08:42:45;;;;;;;3.38;3.17;;;;;;;;;;5082976;27;20234;-53
2022/08/05 08:45:12;;;;;;;4.22;3.80;;;;;;;;;;5083444;28;20226;-52
2022/08/05 08:47:39;;;;;;;3.47;3.05;;;;;;;;;;5071962;27;20227;-53
2022/08/05 08:50:06;;;;;;;4.63;2.90;;;;;;;;;;5081696;28;26673;-53
2022/08/05 08:52:33;;;;;;;3.35;3.08;;;;;;;;;;5079713;27;20708;-52
2022/08/05 08:54:59;;;;;;;3.40;3.05;;;;;;;;;;5079682;27;20243;-55
2022/08/05 08:57:27;;;;;;;3.67;3.38;;;;;;;;;;5080623;27;20233;-57
2022/08/05 08:59:54;;;;;;;4.30;3.17;;;;;;;;;;5080515;27;20235;-54
2022/08/05 09:02:20;;;;;;;6.95;2.85;;;;;;;;;;5077653;27;20778;-55
2022/08/05 09:04:47;;;;;;;3.78;2.97;;;;;;;;;;5080711;27;20309;-54
2022/08/05 09:07:13;;;;;;;6.18;2.97;;;;;;;;;;5080939;27;20241;-52
2022/08/05 09:09:40;;;;;;;4.10;3.22;;;;;;;;;;5077863;27;20237;-55
2022/08/05 09:12:08;;;;;;;5.43;3.35;;;;;;;;;;5079576;27;20246;-52
2022/08/05 09:14:36;;;;;;;3.67;2.30;;;;;;;;;;5078206;27;20269;-52
2022/08/05 09:17:03;;;;;;;3.03;2.63;;;;;;;;;;5078055;27;20234;-52
2022/08/05 09:19:30;;;;;;;5.60;2.80;;;;;;;;;;5084297;27;20322;-53
2022/08/05 09:21:56;;;;;;;4.20;3.35;;;;;;;;;;5074532;27;20262;-53
2022/08/05 09:24:23;;;;;;;5.07;3.15;;;;;;;;;;5081719;27;20258;-53
2022/08/05 09:26:50;;;;;;;3.95;3.10;;;;;;;;;;5069287;27;20604;-52
2022/08/05 09:29:17;;;;;;;4.65;3.13;;;;;;;;;;5070929;27;20701;-56
2022/08/05 09:32:00;;;;;;;3.53;3.22;;;;;;;;;;5076667;27;20866;-54
2022/08/05 09:34:45;;;;;;;3.50;3.20;;;;;;;;;;5075864;27;20242;-52
2022/08/05 09:37:16;;;;;;;4.10;3.35;;;;;;;;;;5073865;27;20231;-52
2022/08/05 09:39:42;;;;;;;2.75;2.47;;;;;;;;;;5075556;28;20693;-52
2022/08/05 09:42:09;;;;;;;4.90;2.85;;;;;;;;;;5083349;27;20313;-52
2022/08/05 09:44:36;;;;;;;4.93;2.78;;;;;;;;;;5082512;27;20235;-52
2022/08/05 09:47:11;;;;;;;2.88;2.67;;;;;;;;;;5079699;27;20235;-52
2022/08/05 09:49:40;;;;;;;3.08;2.80;;;;;;;;;;5073231;28;20295;-55
2022/08/05 09:52:16;;;;;;;4.82;3.22;;;;;;;;;;5080830;27;20241;-53
2022/08/05 09:54:51;;;;;;;3.63;3.17;;;;;;;;;;5079527;28;20317;-54
2022/08/05 09:57:28;;;;;;;2.92;2.70;;;;;;;;;;5078788;27;20278;-54
2022/08/05 09:59:56;;;;;;;7.97;3.45;;;;;;;;;;5080291;27;20832;-52
2022/08/05 10:02:31;;;;;;;3.50;3.30;;;;;;;;;;5080628;27;20734;-55
2022/08/05 10:05:03;;;;;;;5.53;3.47;;;;;;;;;;5076182;27;20234;-52
2022/08/05 10:07:42;;;;;;;4.35;3.60;;;;;;;;;;5083083;27;20226;-53
2022/08/05 10:10:08;;;;;;;6.70;3.55;;;;;;;;;;5077411;27;20241;-53
2022/08/05 10:12:39;;;;;;;4.30;3.55;;;;;;;;;;5080543;27;20234;-53
2022/08/05 10:15:19;;;;;;;3.22;3.03;;;;;;;;;;5076261;27;20238;-53
2022/08/05 10:18:02;;;;;;;4.22;3.83;;;;;;;;;;5082242;27;20606;-53
2022/08/05 10:20:28;;;;;;;7.03;3.97;;;;;;;;;;5075286;27;20226;-52
2022/08/05 10:22:55;;;;;;;4.03;3.10;;;;;;;;;;5080496;27;20739;-54
2022/08/05 10:25:22;;;;;;;3.72;3.40;;;;;;;;;;5072563;27;20264;-53
2022/08/05 10:27:48;;;;;;;6.93;3.25;;;;;;;;;;5078568;27;20227;-53
2022/08/05 10:30:14;;;;;;;5.32;4.30;;;;;;;;;;5081224;28;20242;-52
2022/08/05 10:32:41;;;;;;;3.55;3.30;;;;;;;;;;5069291;27;20227;-52
2022/08/05 10:35:09;;;;;;;6.10;3.67;;;;;;;;;;5073466;27;20245;-53
2022/08/05 10:37:35;;;;;;;5.65;3.30;;;;;;;;;;5072370;27;20231;-52
2022/08/05 10:40:05;;;;;;;4.45;3.08;;;;;;;;;;5079791;27;20234;-52
2022/08/05 10:42:33;;;;;;;3.58;3.15;;;;;;;;;;5073788;27;20260;-56
2022/08/05 10:44:59;;;;;;;2.70;2.50;;;;;;;;;;5085438;27;20898;-53
2022/08/05 10:47:30;;;;;;;3.20;3.00;;;;;;;;;;5079255;27;20249;-53
2022/08/05 10:50:00;;;;;;;3.65;3.30;;;;;;;;;;5067732;27;20241;-53
2022/08/05 10:52:42;;;;;;;3.55;3.25;;;;;;;;;;5080967;27;20311;-52
2022/08/05 10:55:09;;;;;;;3.47;3.17;;;;;;;;;;5079466;27;20764;-52
2022/08/05 10:57:36;;;;;;;3.15;2.95;;;;;;;;;;5083646;27;20314;-52
2022/08/05 11:00:10;;;;;;;4.47;3.38;;;;;;;;;;5088981;27;20238;-52
2022/08/05 11:02:37;;;;;;;5.55;3.60;;;;;;;;;;5075428;27;20226;-52
2022/08/05 11:05:04;;;;;;;4.55;3.35;;;;;;;;;;5077241;27;20239;-53
2022/08/05 11:07:31;;;;;;;4.65;2.97;;;;;;;;;;5080285;27;20227;-53
2022/08/05 11:10:00;;;;;;;3.15;2.60;;;;;;;;;;5078149;27;20651;-52
2022/08/05 11:12:44;;;;;;;3.33;3.03;;;;;;;;;;5078199;27;20265;-53
2022/08/05 11:15:15;;;;;;;3.15;2.88;;;;;;;;;;5080181;28;20317;-53
2022/08/05 11:17:43;;;;;;;4.03;3.28;;;;;;;;;;5077005;27;20230;-52
2022/08/05 11:20:31;;;;;;;3.40;2.88;;;;;;;;;;5073211;27;20239;-53
2022/08/05 11:22:57;;;;;;;3.20;2.90;;;;;;;;;;5077019;27;20269;-53
2022/08/05 11:25:28;;;;;;;2.90;2.70;;;;;;;;;;5084941;27;20257;-54
2022/08/05 11:27:55;;;;;;;1.98;1.88;;;;;;;;;;5081796;27;20242;-53
2022/08/05 11:30:21;;;;;;;2.78;2.58;;;;;;;;;;5077785;27;20239;-53
2022/08/05 11:32:48;;;;;;;4.47;2.55;;;;;;;;;;5076469;27;20241;-56
2022/08/05 11:35:29;;;;;;;2.83;2.60;;;;;;;;;;5082356;27;20309;-53
2022/08/05 11:38:04;;;;;;;4.32;2.60;;;;;;;;;;5074849;28;20880;-54
2022/08/05 11:40:50;;;;;;;2.78;2.58;;;;;;;;;;5088318;27;20279;-54
2022/08/05 11:43:21;;;;;;;2.22;2.10;;;;;;;;;;5075416;27;20231;-54
2022/08/05 11:45:48;;;;;;;2.55;2.30;;;;;;;;;;5076521;27;20227;-55
2022/08/05 11:48:14;;;;;;;3.22;2.45;;;;;;;;;;5080691;28;20241;-54
2022/08/05 11:50:42;;;;;;;2.72;2.53;;;;;;;;;;5094529;27;20234;-53
2022/08/05 11:53:08;;;;;;;4.30;2.72;;;;;;;;;;5080876;27;20302;-53
2022/08/05 11:55:35;;;;;;;3.30;2.95;;;;;;;;;;5086311;27;21016;-53
2022/08/05 11:58:01;;;;;;;3.92;2.70;;;;;;;;;;5090765;27;20239;-53
2022/08/05 12:00:29;;;;;;;3.33;2.63;;;;;;;;;;5084955;27;20240;-54
2022/08/05 12:02:56;;;;;;;2.90;2.53;;;;;;;;;;5076854;27;20250;-53
2022/08/05 12:05:25;;;;;;;3.70;2.88;;;;;;;;;;5086707;27;20239;-52
2022/08/05 12:07:52;;;;;;;2.33;2.13;;;;;;;;;;5077613;27;20226;-54
2022/08/05 12:10:19;;;;;;;3.33;3.03;;;;;;;;;;5078594;27;20290;-53
2022/08/05 12:12:45;;;;;;;2.72;2.53;;;;;;;;;;5078248;27;20241;-52
2022/08/05 12:15:18;;;;;;;2.10;1.98;;;;;;;;;;5087333;27;20222;-53
2022/08/05 12:17:46;;;;;;;2.40;2.20;;;;;;;;;;5084197;27;20235;-53
2022/08/05 12:20:13;;;;;;;3.10;2.50;;;;;;;;;;5086620;27;20280;-54
2022/08/05 12:22:40;;;;;;;2.28;2.00;;;;;;;;;;5083553;27;20262;-53
2022/08/05 12:25:07;;;;;;;2.40;2.20;;;;;;;;;;5084136;27;20281;-53
2022/08/05 12:27:33;;;;;;;3.78;2.22;;;;;;;;;;5084155;27;20234;-52
2022/08/05 12:30:00;;;;;;;3.45;2.30;;;;;;;;;;5083410;27;20738;-54
2022/08/05 12:32:27;;;;;;;2.28;2.05;;;;;;;;;;5081873;27;20230;-53
2022/08/05 12:34:55;;;;;;;2.15;2.00;;;;;;;;;;5086694;27;20238;-54
2022/08/05 12:37:21;;;;;;;2.38;2.03;;;;;;;;;;5081703;27;20230;-54
2022/08/05 12:39:48;;;;;;;2.60;2.22;;;;;;;;;;5085215;27;20296;-59
2022/08/05 12:42:16;;;;;;;2.40;2.20;;;;;;;;;;5079489;27;20223;-53
2022/08/05 12:44:44;;;;;;;4.65;2.40;;;;;;;;;;5084398;27;20313;-53
2022/08/05 12:47:11;;;;;;;2.30;2.17;;;;;;;;;;5087974;27;20790;-53
2022/08/05 12:49:44;;;;;;;2.63;2.42;;;;;;;;;;5086995;27;20252;-53
2022/08/05 12:52:16;;;;;;;2.67;2.03;;;;;;;;;;5082868;27;20231;-54
2022/08/05 12:54:44;;;;;;;3.25;1.92;;;;;;;;;;5087344;27;20310;-53
2022/08/05 12:57:11;;;;;;;2.40;2.20;;;;;;;;;;5083942;27;20315;-54
2022/08/05 12:59:45;;;;;;;2.78;2.15;;;;;;;;;;5079229;28;20246;-54
2022/08/05 13:02:11;;;;;;;1.70;1.60;;;;;;;;;;5085096;27;22158;-54
2022/08/05 13:04:39;;;;;;;2.78;2.30;;;;;;;;;;5087337;27;20239;-54
2022/08/05 13:07:06;;;;;;;1.92;1.80;;;;;;;;;;5079238;27;20238;-54
2022/08/05 13:09:34;;;;;;;1.67;1.58;;;;;;;;;;5084283;27;20249;-54
2022/08/05 13:12:05;;;;;;;2.00;1.90;;;;;;;;;;5080374;27;20681;-54
2022/08/05 13:14:36;;;;;;;2.10;1.90;;;;;;;;;;5080881;28;20240;-54
2022/08/05 13:17:02;;;;;;;3.30;2.03;;;;;;;;;;5080636;27;20227;-54
2022/08/05 13:19:29;;;;;;;2.33;1.80;;;;;;;;;;5077917;27;20629;-54
2022/08/05 13:21:55;;;;;;;2.15;1.95;;;;;;;;;;5086172;27;20253;-54
2022/08/05 13:24:23;;;;;;;4.20;1.90;;;;;;;;;;5080674;27;20598;-53
2022/08/05 13:26:51;;;;;;;2.00;1.90;;;;;;;;;;5076066;27;20637;-53
2022/08/05 13:29:18;;;;;;;1.83;1.55;;;;;;;;;;5082674;27;20238;-53
2022/08/05 13:31:45;;;;;;;2.50;2.10;;;;;;;;;;5078140;27;20707;-53
2022/08/05 13:34:11;;;;;;;2.42;2.28;;;;;;;;;;5080499;27;20230;-55
2022/08/05 13:36:38;;;;;;;2.88;2.60;;;;;;;;;;5079553;27;20226;-52
2022/08/05 13:39:05;;;;;;;2.20;2.00;;;;;;;;;;5079384;27;20228;-54
2022/08/05 13:41:31;;;;;;;3.03;2.30;;;;;;;;;;5088761;27;20226;-53
2022/08/05 13:43:59;;;;;;;2.53;2.33;;;;;;;;;;5082687;27;20241;-52
2022/08/05 13:46:26;;;;;;;4.55;1.85;;;;;;;;;;5082039;27;20230;-53
2022/08/05 13:48:52;;;;;;;2.33;2.17;;;;;;;;;;5081335;28;20234;-54
2022/08/05 13:51:25;;;;;;;2.75;2.17;;;;;;;;;;5085820;27;20609;-54
2022/08/05 13:53:52;;;;;;;2.75;2.50;;;;;;;;;;5068782;27;20636;-53
2022/08/05 13:56:18;;;;;;;2.58;2.38;;;;;;;;;;5075590;27;20227;-53
2022/08/05 13:58:44;;;;;;;3.63;2.45;;;;;;;;;;5083313;27;20231;-53
2022/08/05 14:01:12;;;;;;;3.67;2.15;;;;;;;;;;5066972;28;20246;-53
2022/08/05 14:03:38;;;;;;;2.33;2.20;;;;;;;;;;5085172;28;20233;-54
2022/08/05 14:06:04;;;;;;;3.78;2.78;;;;;;;;;;5082280;27;20234;-52
2022/08/05 14:08:30;;;;;;;3.28;2.67;;;;;;;;;;5071315;28;20605;-52
2022/08/05 14:10:57;;;;;;;2.75;2.55;;;;;;;;;;5082865;28;20242;-53
2022/08/05 14:13:24;;;;;;;3.15;2.67;;;;;;;;;;5079052;27;20231;-53
2022/08/05 14:15:50;;;;;;;3.10;2.90;;;;;;;;;;5074378;27;20371;-53
2022/08/05 14:18:18;;;;;;;3.38;2.83;;;;;;;;;;5077313;27;20237;-54
2022/08/05 14:20:44;;;;;;;4.63;2.80;;;;;;;;;;5075409;27;20261;-53
2022/08/05 14:23:11;;;;;;;5.15;3.00;;;;;;;;;;5080306;27;20237;-53
2022/08/05 14:25:37;;;;;;;3.83;2.63;;;;;;;;;;5083117;27;20317;-53
2022/08/05 14:28:03;;;;;;;2.53;2.33;;;;;;;;;;5081346;27;20237;-52
2022/08/05 14:30:30;;;;;;;5.05;2.92;;;;;;;;;;5079797;27;20234;-53
2022/08/05 14:32:57;;;;;;;4.72;2.90;;;;;;;;;;5077571;27;20724;-52
2022/08/05 14:35:25;;;;;;;3.60;3.17;;;;;;;;;;5084374;28;20871;-54
2022/08/05 14:37:51;;;;;;;3.88;2.88;;;;;;;;;;5089179;27;20230;-52
2022/08/05 14:40:17;;;;;;;3.05;2.75;;;;;;;;;;5083217;27;20235;-53
2022/08/05 14:42:44;;;;;;;2.83;2.63;;;;;;;;;;5081697;27;20228;-53
2022/08/05 14:45:10;;;;;;;3.00;2.80;;;;;;;;;;5076976;27;20230;-54
2022/08/05 14:47:37;;;;;;;3.25;3.05;;;;;;;;;;5083646;27;20260;-53
2022/08/05 14:50:03;;;;;;;3.33;2.67;;;;;;;;;;5077984;27;20231;-53